sensor_id;sensor_type;location;lat;lon;timestamp;temperature;humidity
22194;DHT22;11262;50.308;9.270;2022-12-13T00:01:29;-6.80;99.90
22194;DHT22;11262;50.308;9.270;2022-12-13T00:03:56;-6.80;99.90
22194;DHT22;11262;50.308;9.270;2022-12-13T00:06:23;-6.70;99.90
22194;DHT22;11262;50.308;9.270;2022-12-13T00:08:48;-6.70;99.90
22194;DHT22;11262;50.308;9.270;2022-12-13T00:11:14;-6.70;99.90
22194;DHT22;11262;50.308;9.270;2022-12-13T00:13:41;-6.70;99.90
22194;DHT22;11262;50.308;9.270;2022-12-13T00:16:11;-6.80;99.90
22194;DHT22;11262;50.308;9.270;2022-12-13T00:18:37;-6.80;99.90
22194;DHT22;11262;50.308;9.270;2022-12-13T00:21:05;-6.80;99.90
22194;DHT22;11262;50.308;9.270;2022-12-13T00:23:31;-6.80;99.90
22194;DHT22;11262;50.308;9.270;2022-12-13T00:26:04;-6.80;99.90
22194;DHT22;11262;50.308;9.270;2022-12-13T00:28:30;-6.90;99.90
22194;DHT22;11262;50.308;9.270;2022-12-13T00:31:00;-6.90;99.90
22194;DHT22;11262;50.308;9.270;2022-12-13T00:33:25;-6.90;99.90
22194;DHT22;11262;50.308;9.270;2022-12-13T00:35:52;-6.90;99.90
22194;DHT22;11262;50.308;9.270;2022-12-13T00:38:18;-6.90;99.90
22194;DHT22;11262;50.308;9.270;2022-12-13T00:40:43;-6.90;99.90
22194;DHT22;11262;50.308;9.270;2022-12-13T00:43:09;-6.90;99.90
22194;DHT22;11262;50.308;9.270;2022-12-13T00:45:35;-6.90;99.90
22194;DHT22;11262;50.308;9.270;2022-12-13T00:48:03;-6.90;99.90
22194;DHT22;11262;50.308;9.270;2022-12-13T00:50:29;-6.90;99.90
22194;DHT22;11262;50.308;9.270;2022-12-13T00:52:55;-6.90;99.90
22194;DHT22;11262;50.308;9.270;2022-12-13T00:55:22;-6.80;99.90
22194;DHT22;11262;50.308;9.270;2022-12-13T00:57:48;-6.70;99.90
22194;DHT22;11262;50.308;9.270;2022-12-13T01:00:14;-6.60;99.90
22194;DHT22;11262;50.308;9.270;2022-12-13T01:02:39;-6.50;99.90
22194;DHT22;11262;50.308;9.270;2022-12-13T01:05:06;-6.30;99.90
22194;DHT22;11262;50.308;9.270;2022-12-13T01:07:32;-6.10;99.90
22194;DHT22;11262;50.308;9.270;2022-12-13T01:09:58;-6.00;99.90
22194;DHT22;11262;50.308;9.270;2022-12-13T01:12:23;-5.90;99.90
22194;DHT22;11262;50.308;9.270;2022-12-13T01:14:49;-5.80;99.90
22194;DHT22;11262;50.308;9.270;2022-12-13T01:17:14;-5.70;99.90
22194;DHT22;11262;50.308;9.270;2022-12-13T01:19:40;-5.70;99.90
22194;DHT22;11262;50.308;9.270;2022-12-13T01:22:06;-5.60;99.90
22194;DHT22;11262;50.308;9.270;2022-12-13T01:24:33;-5.60;99.90
22194;DHT22;11262;50.308;9.270;2022-12-13T01:26:59;-5.60;99.90
22194;DHT22;11262;50.308;9.270;2022-12-13T01:29:25;-5.50;99.90
22194;DHT22;11262;50.308;9.270;2022-12-13T01:31:51;-5.60;99.90
22194;DHT22;11262;50.308;9.270;2022-12-13T01:34:19;-5.60;99.90
22194;DHT22;11262;50.308;9.270;2022-12-13T01:36:46;-5.70;99.90
22194;DHT22;11262;50.308;9.270;2022-12-13T01:39:14;-5.70;99.90
22194;DHT22;11262;50.308;9.270;2022-12-13T01:41:41;-5.80;99.90
22194;DHT22;11262;50.308;9.270;2022-12-13T01:47:10;-5.90;99.90
22194;DHT22;11262;50.308;9.270;2022-12-13T01:49:36;-6.00;99.90
22194;DHT22;11262;50.308;9.270;2022-12-13T01:52:05;-5.90;99.90
22194;DHT22;11262;50.308;9.270;2022-12-13T01:54:36;-6.00;99.90
22194;DHT22;11262;50.308;9.270;2022-12-13T01:57:06;-6.00;99.90
22194;DHT22;11262;50.308;9.270;2022-12-13T01:59:34;-6.10;99.90
22194;DHT22;11262;50.308;9.270;2022-12-13T02:02:01;-6.20;99.90
22194;DHT22;11262;50.308;9.270;2022-12-13T02:04:33;-6.20;99.90
22194;DHT22;11262;50.308;9.270;2022-12-13T02:07:01;-6.20;99.90
22194;DHT22;11262;50.308;9.270;2022-12-13T02:09:27;-6.10;99.90
22194;DHT22;11262;50.308;9.270;2022-12-13T02:11:54;-6.10;99.90
22194;DHT22;11262;50.308;9.270;2022-12-13T02:14:19;-6.20;99.90
22194;DHT22;11262;50.308;9.270;2022-12-13T02:17:18;-6.30;99.90
22194;DHT22;11262;50.308;9.270;2022-12-13T02:22:43;-6.40;99.90
22194;DHT22;11262;50.308;9.270;2022-12-13T02:31:20;-6.60;99.90
22194;DHT22;11262;50.308;9.270;2022-12-13T02:34:12;-6.60;99.90
22194;DHT22;11262;50.308;9.270;2022-12-13T02:39:43;-6.60;99.90
22194;DHT22;11262;50.308;9.270;2022-12-13T02:42:24;-6.70;99.90
22194;DHT22;11262;50.308;9.270;2022-12-13T02:47:31;-6.80;99.90
22194;DHT22;11262;50.308;9.270;2022-12-13T02:50:00;-6.80;99.90
22194;DHT22;11262;50.308;9.270;2022-12-13T02:52:28;-6.80;99.90
22194;DHT22;11262;50.308;9.270;2022-12-13T02:54:56;-6.80;99.90
22194;DHT22;11262;50.308;9.270;2022-12-13T02:57:29;-6.90;99.90
22194;DHT22;11262;50.308;9.270;2022-12-13T02:59:55;-6.80;99.90
22194;DHT22;11262;50.308;9.270;2022-12-13T03:08:22;-6.90;99.90
22194;DHT22;11262;50.308;9.270;2022-12-13T03:13:24;-7.00;99.90
22194;DHT22;11262;50.308;9.270;2022-12-13T03:16:21;-7.00;99.90
22194;DHT22;11262;50.308;9.270;2022-12-13T03:18:50;-7.00;99.90
22194;DHT22;11262;50.308;9.270;2022-12-13T03:21:16;-7.00;99.90
22194;DHT22;11262;50.308;9.270;2022-12-13T03:23:42;-7.00;99.90
22194;DHT22;11262;50.308;9.270;2022-12-13T03:26:09;-7.00;99.90
22194;DHT22;11262;50.308;9.270;2022-12-13T03:28:36;-6.90;99.90
22194;DHT22;11262;50.308;9.270;2022-12-13T03:31:01;-6.90;99.90
22194;DHT22;11262;50.308;9.270;2022-12-13T03:33:27;-6.90;99.90
22194;DHT22;11262;50.308;9.270;2022-12-13T03:35:53;-6.90;99.90
22194;DHT22;11262;50.308;9.270;2022-12-13T03:38:18;-6.90;99.90
22194;DHT22;11262;50.308;9.270;2022-12-13T03:40:44;-6.90;99.90
22194;DHT22;11262;50.308;9.270;2022-12-13T03:43:10;-6.90;99.90
22194;DHT22;11262;50.308;9.270;2022-12-13T03:45:36;-6.90;99.90
22194;DHT22;11262;50.308;9.270;2022-12-13T03:48:02;-6.80;99.90
22194;DHT22;11262;50.308;9.270;2022-12-13T03:50:28;-6.80;99.90
22194;DHT22;11262;50.308;9.270;2022-12-13T03:53:00;-6.80;99.90
22194;DHT22;11262;50.308;9.270;2022-12-13T03:55:26;-6.70;99.90
22194;DHT22;11262;50.308;9.270;2022-12-13T03:57:52;-6.70;99.90
22194;DHT22;11262;50.308;9.270;2022-12-13T04:00:18;-6.60;99.90
22194;DHT22;11262;50.308;9.270;2022-12-13T04:02:43;-6.60;99.90
22194;DHT22;11262;50.308;9.270;2022-12-13T04:05:09;-6.60;99.90
22194;DHT22;11262;50.308;9.270;2022-12-13T04:07:35;-6.50;99.90
22194;DHT22;11262;50.308;9.270;2022-12-13T04:10:01;-6.50;99.90
22194;DHT22;11262;50.308;9.270;2022-12-13T04:12:27;-6.50;99.90
22194;DHT22;11262;50.308;9.270;2022-12-13T04:15:11;-6.50;99.90
22194;DHT22;11262;50.308;9.270;2022-12-13T04:17:37;-6.50;99.90
22194;DHT22;11262;50.308;9.270;2022-12-13T04:20:02;-6.60;99.90
22194;DHT22;11262;50.308;9.270;2022-12-13T04:22:28;-6.50;99.90
22194;DHT22;11262;50.308;9.270;2022-12-13T04:24:54;-6.60;99.90
22194;DHT22;11262;50.308;9.270;2022-12-13T04:27:19;-6.50;99.90
22194;DHT22;11262;50.308;9.270;2022-12-13T04:29:45;-6.50;99.90
22194;DHT22;11262;50.308;9.270;2022-12-13T04:32:10;-6.50;99.90
22194;DHT22;11262;50.308;9.270;2022-12-13T04:34:36;-6.50;99.90
22194;DHT22;11262;50.308;9.270;2022-12-13T04:37:02;-6.50;99.90
22194;DHT22;11262;50.308;9.270;2022-12-13T04:39:27;-6.50;99.90
22194;DHT22;11262;50.308;9.270;2022-12-13T04:41:53;-6.50;99.90
22194;DHT22;11262;50.308;9.270;2022-12-13T04:44:19;-6.50;99.90
22194;DHT22;11262;50.308;9.270;2022-12-13T04:46:44;-6.50;99.90
22194;DHT22;11262;50.308;9.270;2022-12-13T04:49:10;-6.50;99.90
22194;DHT22;11262;50.308;9.270;2022-12-13T04:51:35;-6.60;99.90
22194;DHT22;11262;50.308;9.270;2022-12-13T04:54:01;-6.60;99.90
22194;DHT22;11262;50.308;9.270;2022-12-13T04:56:27;-6.70;99.90
22194;DHT22;11262;50.308;9.270;2022-12-13T04:58:52;-6.70;99.90
22194;DHT22;11262;50.308;9.270;2022-12-13T05:01:18;-6.70;99.90
22194;DHT22;11262;50.308;9.270;2022-12-13T05:03:43;-6.60;99.90
22194;DHT22;11262;50.308;9.270;2022-12-13T05:06:11;-6.60;99.90
22194;DHT22;11262;50.308;9.270;2022-12-13T05:08:37;-6.60;99.90
22194;DHT22;11262;50.308;9.270;2022-12-13T05:11:04;-6.70;99.90
22194;DHT22;11262;50.308;9.270;2022-12-13T05:13:30;-6.60;99.90
22194;DHT22;11262;50.308;9.270;2022-12-13T05:16:03;-6.60;99.90
22194;DHT22;11262;50.308;9.270;2022-12-13T05:18:29;-6.70;99.90
22194;DHT22;11262;50.308;9.270;2022-12-13T05:20:55;-6.70;99.90
22194;DHT22;11262;50.308;9.270;2022-12-13T05:23:22;-6.80;99.90
22194;DHT22;11262;50.308;9.270;2022-12-13T05:25:49;-6.80;99.90
22194;DHT22;11262;50.308;9.270;2022-12-13T05:28:15;-6.80;99.90
22194;DHT22;11262;50.308;9.270;2022-12-13T05:30:41;-6.80;99.90
22194;DHT22;11262;50.308;9.270;2022-12-13T05:33:07;-6.80;99.90
22194;DHT22;11262;50.308;9.270;2022-12-13T05:35:33;-6.80;99.90
22194;DHT22;11262;50.308;9.270;2022-12-13T05:37:59;-6.80;99.90
22194;DHT22;11262;50.308;9.270;2022-12-13T05:40:26;-6.80;99.90
22194;DHT22;11262;50.308;9.270;2022-12-13T05:42:53;-6.80;99.90
22194;DHT22;11262;50.308;9.270;2022-12-13T05:45:19;-6.80;99.90
22194;DHT22;11262;50.308;9.270;2022-12-13T05:47:45;-6.80;99.90
22194;DHT22;11262;50.308;9.270;2022-12-13T05:50:12;-6.80;99.90
22194;DHT22;11262;50.308;9.270;2022-12-13T05:52:38;-6.80;99.90
22194;DHT22;11262;50.308;9.270;2022-12-13T05:55:05;-6.90;99.90
22194;DHT22;11262;50.308;9.270;2022-12-13T05:57:31;-6.90;99.90
22194;DHT22;11262;50.308;9.270;2022-12-13T05:59:56;-6.90;99.90
22194;DHT22;11262;50.308;9.270;2022-12-13T06:02:22;-6.90;99.90
22194;DHT22;11262;50.308;9.270;2022-12-13T06:04:48;-7.00;99.90
22194;DHT22;11262;50.308;9.270;2022-12-13T06:07:14;-7.00;99.90
22194;DHT22;11262;50.308;9.270;2022-12-13T06:09:39;-7.00;99.90
22194;DHT22;11262;50.308;9.270;2022-12-13T06:12:05;-7.00;99.90
22194;DHT22;11262;50.308;9.270;2022-12-13T06:14:31;-7.00;99.90
22194;DHT22;11262;50.308;9.270;2022-12-13T06:16:57;-7.00;99.90
22194;DHT22;11262;50.308;9.270;2022-12-13T06:19:23;-7.00;99.90
22194;DHT22;11262;50.308;9.270;2022-12-13T06:21:49;-7.00;99.90
22194;DHT22;11262;50.308;9.270;2022-12-13T06:24:17;-7.10;99.90
22194;DHT22;11262;50.308;9.270;2022-12-13T06:26:43;-7.00;99.90
22194;DHT22;11262;50.308;9.270;2022-12-13T06:29:08;-7.00;99.90
22194;DHT22;11262;50.308;9.270;2022-12-13T06:31:35;-7.00;99.90
22194;DHT22;11262;50.308;9.270;2022-12-13T06:34:03;-6.90;99.90
22194;DHT22;11262;50.308;9.270;2022-12-13T06:36:29;-6.90;99.90
22194;DHT22;11262;50.308;9.270;2022-12-13T06:38:55;-7.00;99.90
22194;DHT22;11262;50.308;9.270;2022-12-13T06:41:20;-7.00;99.90
22194;DHT22;11262;50.308;9.270;2022-12-13T06:43:47;-7.10;99.90
22194;DHT22;11262;50.308;9.270;2022-12-13T06:46:14;-7.10;99.90
22194;DHT22;11262;50.308;9.270;2022-12-13T06:48:40;-7.10;99.90
22194;DHT22;11262;50.308;9.270;2022-12-13T06:51:06;-7.20;99.90
22194;DHT22;11262;50.308;9.270;2022-12-13T06:53:34;-7.20;99.90
22194;DHT22;11262;50.308;9.270;2022-12-13T06:56:04;-7.20;99.90
22194;DHT22;11262;50.308;9.270;2022-12-13T06:58:31;-7.20;99.90
22194;DHT22;11262;50.308;9.270;2022-12-13T07:01:02;-7.20;99.90
22194;DHT22;11262;50.308;9.270;2022-12-13T07:03:28;-7.20;99.90
22194;DHT22;11262;50.308;9.270;2022-12-13T07:05:54;-7.20;99.90
22194;DHT22;11262;50.308;9.270;2022-12-13T07:08:19;-7.30;99.90
22194;DHT22;11262;50.308;9.270;2022-12-13T07:10:45;-7.20;99.90
22194;DHT22;11262;50.308;9.270;2022-12-13T07:13:11;-7.30;99.90
22194;DHT22;11262;50.308;9.270;2022-12-13T07:15:36;-7.30;99.90
22194;DHT22;11262;50.308;9.270;2022-12-13T07:18:02;-7.30;99.90
22194;DHT22;11262;50.308;9.270;2022-12-13T07:20:28;-7.30;99.90
22194;DHT22;11262;50.308;9.270;2022-12-13T07:22:54;-7.30;99.90
22194;DHT22;11262;50.308;9.270;2022-12-13T07:25:21;-7.30;99.90
22194;DHT22;11262;50.308;9.270;2022-12-13T07:27:47;-7.30;99.90
22194;DHT22;11262;50.308;9.270;2022-12-13T07:30:13;-7.30;99.90
22194;DHT22;11262;50.308;9.270;2022-12-13T07:32:38;-7.30;99.90
22194;DHT22;11262;50.308;9.270;2022-12-13T07:35:04;-7.30;99.90
22194;DHT22;11262;50.308;9.270;2022-12-13T07:37:29;-7.30;99.90
22194;DHT22;11262;50.308;9.270;2022-12-13T07:39:55;-7.20;99.90
22194;DHT22;11262;50.308;9.270;2022-12-13T07:42:20;-7.20;99.90
22194;DHT22;11262;50.308;9.270;2022-12-13T07:44:46;-7.10;99.90
22194;DHT22;11262;50.308;9.270;2022-12-13T07:47:12;-7.00;99.90
22194;DHT22;11262;50.308;9.270;2022-12-13T07:49:37;-7.00;99.90
22194;DHT22;11262;50.308;9.270;2022-12-13T07:52:08;-6.90;99.90
22194;DHT22;11262;50.308;9.270;2022-12-13T07:54:34;-6.80;99.90
22194;DHT22;11262;50.308;9.270;2022-12-13T07:56:59;-6.80;99.90
22194;DHT22;11262;50.308;9.270;2022-12-13T07:59:25;-6.70;99.90
22194;DHT22;11262;50.308;9.270;2022-12-13T08:01:50;-6.60;99.90
22194;DHT22;11262;50.308;9.270;2022-12-13T08:04:16;-6.50;99.90
22194;DHT22;11262;50.308;9.270;2022-12-13T08:06:42;-6.50;99.90
22194;DHT22;11262;50.308;9.270;2022-12-13T08:09:07;-6.40;99.90
22194;DHT22;11262;50.308;9.270;2022-12-13T08:11:33;-6.30;99.90
22194;DHT22;11262;50.308;9.270;2022-12-13T08:13:59;-6.20;99.90
22194;DHT22;11262;50.308;9.270;2022-12-13T08:16:25;-6.10;99.90
22194;DHT22;11262;50.308;9.270;2022-12-13T08:18:50;-6.10;99.90
22194;DHT22;11262;50.308;9.270;2022-12-13T08:21:16;-6.10;99.90
22194;DHT22;11262;50.308;9.270;2022-12-13T08:23:41;-6.00;99.90
22194;DHT22;11262;50.308;9.270;2022-12-13T08:26:07;-6.00;99.90
22194;DHT22;11262;50.308;9.270;2022-12-13T08:28:33;-5.90;99.90
22194;DHT22;11262;50.308;9.270;2022-12-13T08:31:04;-5.90;99.90
22194;DHT22;11262;50.308;9.270;2022-12-13T08:33:31;-5.80;99.90
22194;DHT22;11262;50.308;9.270;2022-12-13T08:35:57;-5.80;99.90
22194;DHT22;11262;50.308;9.270;2022-12-13T08:38:23;-5.70;99.90
22194;DHT22;11262;50.308;9.270;2022-12-13T08:40:48;-5.70;99.90
22194;DHT22;11262;50.308;9.270;2022-12-13T08:43:14;-5.60;99.90
22194;DHT22;11262;50.308;9.270;2022-12-13T08:45:39;-5.50;99.90
22194;DHT22;11262;50.308;9.270;2022-12-13T08:48:05;-5.40;99.90
22194;DHT22;11262;50.308;9.270;2022-12-13T08:50:31;-5.40;99.90
22194;DHT22;11262;50.308;9.270;2022-12-13T08:52:56;-5.30;99.90
22194;DHT22;11262;50.308;9.270;2022-12-13T08:55:22;-5.20;99.90
22194;DHT22;11262;50.308;9.270;2022-12-13T08:57:48;-5.10;99.90
22194;DHT22;11262;50.308;9.270;2022-12-13T09:00:16;-5.00;99.90
22194;DHT22;11262;50.308;9.270;2022-12-13T09:02:42;-4.90;99.90
22194;DHT22;11262;50.308;9.270;2022-12-13T09:05:09;-4.90;99.90
22194;DHT22;11262;50.308;9.270;2022-12-13T09:07:36;-4.70;99.90
22194;DHT22;11262;50.308;9.270;2022-12-13T09:10:04;-4.70;99.90
22194;DHT22;11262;50.308;9.270;2022-12-13T09:12:30;-4.50;99.90
22194;DHT22;11262;50.308;9.270;2022-12-13T09:14:56;-4.50;99.90
22194;DHT22;11262;50.308;9.270;2022-12-13T09:17:21;-4.30;99.90
22194;DHT22;11262;50.308;9.270;2022-12-13T09:19:47;-4.20;99.90
22194;DHT22;11262;50.308;9.270;2022-12-13T09:22:12;-4.10;99.90
22194;DHT22;11262;50.308;9.270;2022-12-13T09:24:38;-3.90;99.90
22194;DHT22;11262;50.308;9.270;2022-12-13T09:27:04;-3.80;99.90
22194;DHT22;11262;50.308;9.270;2022-12-13T09:29:32;-3.80;99.90
22194;DHT22;11262;50.308;9.270;2022-12-13T09:31:57;-3.70;99.90
22194;DHT22;11262;50.308;9.270;2022-12-13T09:34:23;-3.60;99.90
22194;DHT22;11262;50.308;9.270;2022-12-13T09:36:48;-3.50;99.90
22194;DHT22;11262;50.308;9.270;2022-12-13T09:39:15;-3.50;99.90
22194;DHT22;11262;50.308;9.270;2022-12-13T09:41:44;-3.40;99.90
22194;DHT22;11262;50.308;9.270;2022-12-13T09:46:42;-3.20;99.90
22194;DHT22;11262;50.308;9.270;2022-12-13T09:49:23;-3.00;99.90
22194;DHT22;11262;50.308;9.270;2022-12-13T09:51:57;-3.00;99.90
22194;DHT22;11262;50.308;9.270;2022-12-13T09:54:24;-2.80;99.90
22194;DHT22;11262;50.308;9.270;2022-12-13T09:56:51;-2.80;99.90
22194;DHT22;11262;50.308;9.270;2022-12-13T09:59:28;-2.70;99.90
22194;DHT22;11262;50.308;9.270;2022-12-13T10:01:55;-2.60;99.90
22194;DHT22;11262;50.308;9.270;2022-12-13T10:04:21;-2.60;99.90
22194;DHT22;11262;50.308;9.270;2022-12-13T10:06:51;-2.40;99.90
22194;DHT22;11262;50.308;9.270;2022-12-13T10:09:17;-2.30;99.90
22194;DHT22;11262;50.308;9.270;2022-12-13T10:11:53;-2.10;99.90
22194;DHT22;11262;50.308;9.270;2022-12-13T10:14:24;-1.90;99.90
22194;DHT22;11262;50.308;9.270;2022-12-13T10:16:54;-1.70;99.90
22194;DHT22;11262;50.308;9.270;2022-12-13T10:21:48;-1.40;99.90
22194;DHT22;11262;50.308;9.270;2022-12-13T10:24:22;-1.40;99.90
22194;DHT22;11262;50.308;9.270;2022-12-13T10:26:52;-1.30;99.90
22194;DHT22;11262;50.308;9.270;2022-12-13T10:29:19;-1.20;99.90
22194;DHT22;11262;50.308;9.270;2022-12-13T10:31:47;-1.10;99.90
22194;DHT22;11262;50.308;9.270;2022-12-13T10:34:29;-1.00;99.90
22194;DHT22;11262;50.308;9.270;2022-12-13T10:37:28;-1.00;99.90
22194;DHT22;11262;50.308;9.270;2022-12-13T10:39:54;-0.90;99.90
22194;DHT22;11262;50.308;9.270;2022-12-13T10:42:21;-0.90;99.90
22194;DHT22;11262;50.308;9.270;2022-12-13T10:44:47;-0.90;99.90
22194;DHT22;11262;50.308;9.270;2022-12-13T10:47:17;-0.80;99.90
22194;DHT22;11262;50.308;9.270;2022-12-13T10:49:51;-0.80;99.90
22194;DHT22;11262;50.308;9.270;2022-12-13T10:54:56;-0.70;99.90
22194;DHT22;11262;50.308;9.270;2022-12-13T10:57:23;-0.70;99.90
22194;DHT22;11262;50.308;9.270;2022-12-13T10:59:50;-0.70;99.90
22194;DHT22;11262;50.308;9.270;2022-12-13T11:04:57;-0.50;99.90
22194;DHT22;11262;50.308;9.270;2022-12-13T11:07:30;-0.30;99.90
22194;DHT22;11262;50.308;9.270;2022-12-13T11:09:57;-0.20;99.90
22194;DHT22;11262;50.308;9.270;2022-12-13T11:12:25;-0.30;99.90
22194;DHT22;11262;50.308;9.270;2022-12-13T11:15:03;-0.20;99.90
22194;DHT22;11262;50.308;9.270;2022-12-13T11:17:32;-0.30;99.90
22194;DHT22;11262;50.308;9.270;2022-12-13T11:20:03;-0.20;99.90
22194;DHT22;11262;50.308;9.270;2022-12-13T11:22:34;0.00;99.90
22194;DHT22;11262;50.308;9.270;2022-12-13T11:25:20;0.10;99.90
22194;DHT22;11262;50.308;9.270;2022-12-13T11:36:50;0.50;99.90
22194;DHT22;11262;50.308;9.270;2022-12-13T11:42:09;0.50;99.90
22194;DHT22;11262;50.308;9.270;2022-12-13T11:44:49;0.70;99.90
22194;DHT22;11262;50.308;9.270;2022-12-13T11:48:35;0.80;99.90
22194;DHT22;11262;50.308;9.270;2022-12-13T11:50:40;0.90;99.90
22194;DHT22;11262;50.308;9.270;2022-12-13T12:01:11;0.80;99.90
22194;DHT22;11262;50.308;9.270;2022-12-13T12:06:44;1.00;99.90
22194;DHT22;11262;50.308;9.270;2022-12-13T12:09:14;1.00;99.90
22194;DHT22;11262;50.308;9.270;2022-12-13T12:11:50;1.10;99.90
22194;DHT22;11262;50.308;9.270;2022-12-13T12:16:57;1.20;99.90
22194;DHT22;11262;50.308;9.270;2022-12-13T12:19:29;1.20;99.90
22194;DHT22;11262;50.308;9.270;2022-12-13T12:27:24;2.10;99.90
22194;DHT22;11262;50.308;9.270;2022-12-13T12:30:04;2.30;99.90
22194;DHT22;11262;50.308;9.270;2022-12-13T12:43:40;3.40;99.90
22194;DHT22;11262;50.308;9.270;2022-12-13T12:46:24;3.50;99.90
22194;DHT22;11262;50.308;9.270;2022-12-13T12:57:29;3.90;99.90
22194;DHT22;11262;50.308;9.270;2022-12-13T13:00:03;3.80;99.90
22194;DHT22;11262;50.308;9.270;2022-12-13T13:05:18;4.10;99.90
22194;DHT22;11262;50.308;9.270;2022-12-13T13:07:49;4.10;99.90
22194;DHT22;11262;50.308;9.270;2022-12-13T13:10:17;4.00;99.90
22194;DHT22;11262;50.308;9.270;2022-12-13T13:12:43;3.70;99.90
22194;DHT22;11262;50.308;9.270;2022-12-13T13:17:58;2.90;99.90
22194;DHT22;11262;50.308;9.270;2022-12-13T13:20:24;2.50;99.90
22194;DHT22;11262;50.308;9.270;2022-12-13T13:22:52;1.80;99.90
22194;DHT22;11262;50.308;9.270;2022-12-13T13:25:28;1.50;99.90
22194;DHT22;11262;50.308;9.270;2022-12-13T13:28:14;1.20;99.90
22194;DHT22;11262;50.308;9.270;2022-12-13T13:31:02;1.10;99.90
22194;DHT22;11262;50.308;9.270;2022-12-13T13:33:46;0.80;99.90
22194;DHT22;11262;50.308;9.270;2022-12-13T13:39:02;0.60;99.90
22194;DHT22;11262;50.308;9.270;2022-12-13T13:50:02;-0.10;99.90
22194;DHT22;11262;50.308;9.270;2022-12-13T14:04:27;-0.60;99.90
22194;DHT22;11262;50.308;9.270;2022-12-13T14:13:22;-0.80;99.90
22194;DHT22;11262;50.308;9.270;2022-12-13T14:24:21;-0.90;99.90
22194;DHT22;11262;50.308;9.270;2022-12-13T14:27:05;-1.00;99.90
22194;DHT22;11262;50.308;9.270;2022-12-13T14:29:40;-1.10;99.90
22194;DHT22;11262;50.308;9.270;2022-12-13T14:32:25;-1.30;99.90
22194;DHT22;11262;50.308;9.270;2022-12-13T14:34:52;-1.40;99.90
22194;DHT22;11262;50.308;9.270;2022-12-13T14:37:30;-1.40;99.90
22194;DHT22;11262;50.308;9.270;2022-12-13T14:39:57;-1.50;99.90
22194;DHT22;11262;50.308;9.270;2022-12-13T14:42:32;-1.50;99.90
22194;DHT22;11262;50.308;9.270;2022-12-13T14:45:23;-1.60;99.90
22194;DHT22;11262;50.308;9.270;2022-12-13T14:47:51;-1.80;99.90
22194;DHT22;11262;50.308;9.270;2022-12-13T14:50:18;-1.80;99.90
22194;DHT22;11262;50.308;9.270;2022-12-13T14:52:45;-1.80;99.90
22194;DHT22;11262;50.308;9.270;2022-12-13T14:57:56;-1.90;99.90
22194;DHT22;11262;50.308;9.270;2022-12-13T15:00:34;-1.90;99.90
22194;DHT22;11262;50.308;9.270;2022-12-13T15:03:03;-1.90;99.90
22194;DHT22;11262;50.308;9.270;2022-12-13T15:05:32;-2.00;99.90
22194;DHT22;11262;50.308;9.270;2022-12-13T15:07:59;-2.00;99.90
22194;DHT22;11262;50.308;9.270;2022-12-13T15:10:39;-2.10;99.90
22194;DHT22;11262;50.308;9.270;2022-12-13T15:13:05;-2.10;99.90
22194;DHT22;11262;50.308;9.270;2022-12-13T15:15:35;-2.10;99.90
22194;DHT22;11262;50.308;9.270;2022-12-13T15:20:39;-2.20;99.90
22194;DHT22;11262;50.308;9.270;2022-12-13T15:23:53;-2.20;99.90
22194;DHT22;11262;50.308;9.270;2022-12-13T15:26:07;-2.30;99.90
22194;DHT22;11262;50.308;9.270;2022-12-13T15:28:37;-2.30;99.90
22194;DHT22;11262;50.308;9.270;2022-12-13T15:31:05;-2.40;99.90
22194;DHT22;11262;50.308;9.270;2022-12-13T15:33:31;-2.40;99.90
22194;DHT22;11262;50.308;9.270;2022-12-13T15:38:31;-2.50;99.90
22194;DHT22;11262;50.308;9.270;2022-12-13T15:40:56;-2.60;99.90
22194;DHT22;11262;50.308;9.270;2022-12-13T15:43:31;-2.70;99.90
22194;DHT22;11262;50.308;9.270;2022-12-13T15:45:57;-2.80;99.90
22194;DHT22;11262;50.308;9.270;2022-12-13T15:48:31;-2.80;99.90
22194;DHT22;11262;50.308;9.270;2022-12-13T15:51:09;-2.80;99.90
22194;DHT22;11262;50.308;9.270;2022-12-13T15:53:36;-2.90;99.90
22194;DHT22;11262;50.308;9.270;2022-12-13T15:56:22;-3.00;99.90
22194;DHT22;11262;50.308;9.270;2022-12-13T15:58:52;-3.10;99.90
22194;DHT22;11262;50.308;9.270;2022-12-13T16:01:28;-3.30;99.90
22194;DHT22;11262;50.308;9.270;2022-12-13T16:03:55;-3.30;99.90
22194;DHT22;11262;50.308;9.270;2022-12-13T16:06:22;-3.30;99.90
22194;DHT22;11262;50.308;9.270;2022-12-13T16:08:52;-3.40;99.90
22194;DHT22;11262;50.308;9.270;2022-12-13T16:13:54;-3.40;99.90
22194;DHT22;11262;50.308;9.270;2022-12-13T16:16:40;-3.50;99.90
22194;DHT22;11262;50.308;9.270;2022-12-13T16:19:12;-3.60;99.90
22194;DHT22;11262;50.308;9.270;2022-12-13T16:21:40;-3.60;99.90
22194;DHT22;11262;50.308;9.270;2022-12-13T16:24:06;-3.60;99.90
22194;DHT22;11262;50.308;9.270;2022-12-13T16:26:33;-3.60;99.90
22194;DHT22;11262;50.308;9.270;2022-12-13T16:28:58;-3.60;99.90
22194;DHT22;11262;50.308;9.270;2022-12-13T16:31:25;-3.60;99.90
22194;DHT22;11262;50.308;9.270;2022-12-13T16:33:52;-3.50;99.90
22194;DHT22;11262;50.308;9.270;2022-12-13T16:36:18;-3.50;99.90
22194;DHT22;11262;50.308;9.270;2022-12-13T16:38:44;-3.50;99.90
22194;DHT22;11262;50.308;9.270;2022-12-13T16:41:10;-3.50;99.90
22194;DHT22;11262;50.308;9.270;2022-12-13T16:43:43;-3.50;99.90
22194;DHT22;11262;50.308;9.270;2022-12-13T16:46:12;-3.40;99.90
22194;DHT22;11262;50.308;9.270;2022-12-13T16:48:38;-3.30;99.90
22194;DHT22;11262;50.308;9.270;2022-12-13T16:51:04;-3.40;99.90
22194;DHT22;11262;50.308;9.270;2022-12-13T16:53:30;-3.40;99.90
22194;DHT22;11262;50.308;9.270;2022-12-13T16:55:57;-3.30;99.90
22194;DHT22;11262;50.308;9.270;2022-12-13T16:58:23;-3.40;99.90
22194;DHT22;11262;50.308;9.270;2022-12-13T17:00:50;-3.50;99.90
22194;DHT22;11262;50.308;9.270;2022-12-13T17:03:16;-3.50;99.90
22194;DHT22;11262;50.308;9.270;2022-12-13T17:05:43;-3.60;99.90
22194;DHT22;11262;50.308;9.270;2022-12-13T17:08:11;-3.60;99.90
22194;DHT22;11262;50.308;9.270;2022-12-13T17:10:37;-3.60;99.90
22194;DHT22;11262;50.308;9.270;2022-12-13T17:13:03;-3.70;99.90
22194;DHT22;11262;50.308;9.270;2022-12-13T17:15:29;-3.80;99.90
22194;DHT22;11262;50.308;9.270;2022-12-13T17:17:55;-3.80;99.90
22194;DHT22;11262;50.308;9.270;2022-12-13T17:20:20;-3.90;99.90
22194;DHT22;11262;50.308;9.270;2022-12-13T17:22:46;-3.90;99.90
22194;DHT22;11262;50.308;9.270;2022-12-13T17:25:12;-3.90;99.90
22194;DHT22;11262;50.308;9.270;2022-12-13T17:27:39;-4.00;99.90
22194;DHT22;11262;50.308;9.270;2022-12-13T17:30:06;-4.00;99.90
22194;DHT22;11262;50.308;9.270;2022-12-13T17:32:33;-4.00;99.90
22194;DHT22;11262;50.308;9.270;2022-12-13T17:35:00;-4.10;99.90
22194;DHT22;11262;50.308;9.270;2022-12-13T17:37:27;-4.10;99.90
22194;DHT22;11262;50.308;9.270;2022-12-13T17:39:52;-4.10;99.90
22194;DHT22;11262;50.308;9.270;2022-12-13T17:42:18;-4.20;99.90
22194;DHT22;11262;50.308;9.270;2022-12-13T17:44:43;-4.10;99.90
22194;DHT22;11262;50.308;9.270;2022-12-13T17:47:09;-4.20;99.90
22194;DHT22;11262;50.308;9.270;2022-12-13T17:49:35;-4.20;99.90
22194;DHT22;11262;50.308;9.270;2022-12-13T17:52:00;-4.20;99.90
22194;DHT22;11262;50.308;9.270;2022-12-13T17:54:26;-4.20;99.90
22194;DHT22;11262;50.308;9.270;2022-12-13T17:56:53;-4.20;99.90
22194;DHT22;11262;50.308;9.270;2022-12-13T17:59:19;-4.20;99.90
22194;DHT22;11262;50.308;9.270;2022-12-13T18:01:45;-4.20;99.90